»·PEaware :: N4977P KDLO-KWHP

N4977P :: KDLO-KWHP

FLIGHT INFORMATION

Flight Status: Arrived
Operator: Privately registered:
United States
More flights under this callsign
Pilot: Les P. (123)
Aircraft: PIPER PA-24 COMMANCHE
(PA24)
More flights by this aircraft type
Origin: KDLO Delano Mun
United States
Destination: KWHP Whiteman
United States
More flights between these airports :: More routes between these airports
Route: DELNO EHF T259 LHS LHS170 LYNXX VNY
File this flight plan on PilotEdge
Remarks:
Altitude:
(Current/Filed)
11,000ft
Speed:
(Current/Filed)
145kts
Departed: 27-Sep-23 01:18 PM
Arrived: 27-Sep-23 02:03 PM
Distance/Time
Traveled:
98nm/0:45
Distance/Time
To Go:
Arrived

Flight Plot

Page will automatically refresh every two minutes.

Flight plan parsing failed; only flown route is shown


Map Options




Map Legend


Flown Route
Filed Route
Departure Airport
Arrival Airport
Navaid (VOR, NDB)
Fix

Horizontal Profiles

Position Reports

Time Latitude Longitude Heading Altitude Ground
Speed
27-Sep-23 12:23 35.746387 -119.238892 161 318ft 0kts
27-Sep-23 12:24 35.746387 -119.238892 161 327ft 0kts
27-Sep-23 12:25 35.746387 -119.238892 161 327ft 0kts
27-Sep-23 12:26 35.746387 -119.238892 161 327ft 0kts
27-Sep-23 12:27 35.746387 -119.238892 161 327ft 0kts
27-Sep-23 12:28 35.746387 -119.238892 161 327ft 0kts
27-Sep-23 12:29 35.746387 -119.238892 161 327ft 0kts
27-Sep-23 12:30 35.746387 -119.238892 161 327ft 0kts
27-Sep-23 12:31 35.746387 -119.238892 161 327ft 0kts
27-Sep-23 12:32 35.746387 -119.238892 161 327ft 0kts
27-Sep-23 12:33 35.746387 -119.238892 161 327ft 0kts
27-Sep-23 12:34 35.746386 -119.238892 161 327ft 0kts
27-Sep-23 12:35 35.746386 -119.238892 161 327ft 0kts
27-Sep-23 12:36 35.746386 -119.238892 161 327ft 0kts
27-Sep-23 12:37 35.746386 -119.238892 161 327ft 0kts
27-Sep-23 12:38 35.746386 -119.238892 161 327ft 0kts
27-Sep-23 12:39 35.746386 -119.238892 161 318ft 0kts
27-Sep-23 12:40 35.746386 -119.238892 161 318ft 0kts
27-Sep-23 12:41 35.746386 -119.238892 161 318ft 0kts
27-Sep-23 12:42 35.746386 -119.238892 161 318ft 0kts
27-Sep-23 12:43 35.746386 -119.238892 161 318ft 0kts
27-Sep-23 12:44 35.746386 -119.238892 161 318ft 0kts
27-Sep-23 12:45 35.746386 -119.238892 161 318ft 0kts
27-Sep-23 12:45 35.746386 -119.238892 161 318ft 0kts
27-Sep-23 12:46 35.746386 -119.238892 161 318ft 0kts
27-Sep-23 12:48 35.746386 -119.238892 161 318ft 0kts
27-Sep-23 12:49 35.746386 -119.238892 161 318ft 0kts
27-Sep-23 12:49 35.746386 -119.238892 161 318ft 0kts
27-Sep-23 12:50 35.746386 -119.238892 161 318ft 0kts
27-Sep-23 12:51 35.746386 -119.238892 161 318ft 0kts
27-Sep-23 12:52 35.746386 -119.238892 161 318ft 0kts
27-Sep-23 12:54 35.746386 -119.238892 161 318ft 0kts
27-Sep-23 12:54 35.746386 -119.238892 161 318ft 0kts
27-Sep-23 12:55 35.746386 -119.238892 161 327ft 0kts
27-Sep-23 12:56 35.746386 -119.238892 161 327ft 0kts
27-Sep-23 12:57 35.746386 -119.238892 161 327ft 0kts
27-Sep-23 12:58 35.746386 -119.238892 161 327ft 0kts
27-Sep-23 12:59 35.746385 -119.238892 161 327ft 0kts
27-Sep-23 13:00 35.746385 -119.238892 161 327ft 0kts
27-Sep-23 13:01 35.746385 -119.238892 161 327ft 0kts
27-Sep-23 13:02 35.746385 -119.238892 161 327ft 0kts
27-Sep-23 13:03 35.746385 -119.238892 161 327ft 0kts
27-Sep-23 13:04 35.746385 -119.238892 161 327ft 0kts
27-Sep-23 13:05 35.746327 -119.238694 45 318ft 9kts
27-Sep-23 13:06 35.748341 -119.239814 161 318ft 9kts
27-Sep-23 13:07 35.743779 -119.237318 158 317ft 23kts
27-Sep-23 13:08 35.738793 -119.234505 117 316ft 14kts
27-Sep-23 13:09 35.738637 -119.234093 108 316ft 0kts
27-Sep-23 13:10 35.738637 -119.234093 108 316ft 0kts
27-Sep-23 13:11 35.738637 -119.234093 108 316ft 0kts
27-Sep-23 13:12 35.738637 -119.234093 108 316ft 0kts
27-Sep-23 13:13 35.738637 -119.234093 108 316ft 0kts
27-Sep-23 13:14 35.738637 -119.234093 108 316ft 0kts
27-Sep-23 13:15 35.738637 -119.234093 108 316ft 0kts
27-Sep-23 13:16 35.738579 -119.233798 97 317ft 1kts
27-Sep-23 13:17 35.743780 -119.235705 339 355ft 80kts
27-Sep-23 13:18 35.753588 -119.252895 195 1265ft 106kts
27-Sep-23 13:19 35.728463 -119.232939 108 2311ft 116kts
27-Sep-23 13:20 35.708468 -119.206260 153 3301ft 115kts
27-Sep-23 13:21 35.678212 -119.192098 149 4197ft 118kts
27-Sep-23 13:22 35.647262 -119.176058 160 5022ft 122kts
27-Sep-23 13:23 35.614213 -119.163377 159 5821ft 125kts
27-Sep-23 13:24 35.581103 -119.147520 154 6603ft 129kts
27-Sep-23 13:25 35.548414 -119.128882 154 7308ft 129kts
27-Sep-23 13:26 35.515293 -119.111453 159 7971ft 130kts
27-Sep-23 13:27 35.481580 -119.095523 160 8591ft 130kts
27-Sep-23 13:28 35.449485 -119.071994 152 9002ft 144kts
27-Sep-23 13:29 35.411097 -119.049125 156 9015ft 161kts
27-Sep-23 13:30 35.370705 -119.023940 152 9013ft 164kts
27-Sep-23 13:31 35.330701 -118.995857 153 9008ft 166kts
27-Sep-23 13:32 35.290195 -118.969845 153 9003ft 163kts
27-Sep-23 13:33 35.249980 -118.944098 154 9000ft 163kts
27-Sep-23 13:34 35.210193 -118.917742 152 9000ft 162kts
27-Sep-23 13:35 35.170362 -118.891512 153 8999ft 163kts
27-Sep-23 13:36 35.130388 -118.865503 157 8993ft 163kts
27-Sep-23 13:37 35.089705 -118.841026 154 9008ft 163kts
27-Sep-23 13:38 35.050314 -118.813501 156 9013ft 163kts
27-Sep-23 13:39 35.010216 -118.786820 155 9015ft 163kts
27-Sep-23 13:40 34.969038 -118.762378 156 9013ft 165kts
27-Sep-23 13:41 34.928732 -118.735426 153 8998ft 164kts
27-Sep-23 13:42 34.888251 -118.709416 156 8981ft 164kts
27-Sep-23 13:43 34.847860 -118.683168 151 8975ft 165kts
27-Sep-23 13:44 34.807707 -118.655958 154 8955ft 165kts
27-Sep-23 13:45 34.766934 -118.631390 153 8947ft 163kts
27-Sep-23 13:46 34.725923 -118.606233 150 8946ft 165kts
27-Sep-23 13:47 34.686779 -118.577032 156 8943ft 164kts
27-Sep-23 13:48 34.641979 -118.574491 186 8937ft 160kts
27-Sep-23 13:49 34.598662 -118.584398 192 8926ft 156kts
27-Sep-23 13:50 34.555218 -118.588353 186 8913ft 158kts
27-Sep-23 13:51 34.512045 -118.594168 188 8908ft 155kts
27-Sep-23 13:52 34.468160 -118.591170 178 8548ft 159kts
27-Sep-23 13:53 34.418862 -118.589020 175 7018ft 177kts
27-Sep-23 13:54 34.373501 -118.575983 123 5686ft 178kts
27-Sep-23 13:55 34.345540 -118.529485 134 4622ft 168kts
27-Sep-23 13:56 34.305913 -118.503711 163 3456ft 154kts
27-Sep-23 13:57 34.282063 -118.465684 120 2538ft 138kts
27-Sep-23 13:58 34.266024 -118.425575 135 1906ft 128kts
27-Sep-23 13:59 34.243463 -118.397830 71 1811ft 110kts
27-Sep-23 14:00 34.267521 -118.404341 323 1766ft 99kts
27-Sep-23 14:01 34.275332 -118.427262 181 1519ft 98kts
27-Sep-23 14:02 34.259090 -118.413186 139 983ft 28kts
27-Sep-23 14:03 34.258035 -118.411452 331 979ft 0kts
27-Sep-23 14:04 34.258035 -118.411452 331 979ft 0kts
27-Sep-23 14:05 34.259781 -118.413333 301 986ft 8kts
27-Sep-23 14:06 34.262027 -118.415430 43 991ft 4kts
27-Sep-23 14:07 34.262583 -118.415664 134 992ft 0kts
27-Sep-23 14:08 34.262575 -118.415653 133 992ft 0kts

Navigation Log

Ident Type
Flight plan parsing failed, navigation log unavailable